KADM/ADM METAR and TAF weather

Enter ICAO airport designator
Station Type Date Time Source
KADM METAR 2021/03/05 06:35 UTC NOAA

KADM 050635Z AUTO 13008KT 10SM OVC055 15/05 A2992 RMK AO2


Station Type Date Time Source
KADM Decoded METAR 2021/03/05 06:35 UTC NOAA

Ardmore, Ardmore Municipal Airport, OK, United States (KADM) 34-18-11N 097-01-10W
Mar 05, 2021 - 01:35 AM EST / 2021.03.05 0635 UTC
Wind: from the SE (130 degrees) at 9 MPH (8 KT):0
Visibility: 10 mile(s):0
Sky conditions: overcast
Temperature: 59 F (15 C)
Dew Point: 41 F (5 C)
Relative Humidity: 51%
Pressure (altimeter): 29.92 in. Hg (1013 hPa)
ob: KADM 050635Z AUTO 13008KT 10SM OVC055 15/05 A2992 RMK AO2
cycle: 6

Station Type Date Time Source
KADM TAF UTC NOAA

Error!

Example: see airport list